MPM weather

Public forecast

Using degrees Celsius for public forecast. Weather courtesy of forecast.io.

Current aviation weather report (METAR) for Maputo Airport

Retrieved 2020/08/10 14:00 UTC (52 minutes ago):

FQMA 101400Z 13014KT CAVOK 23/14 Q1018 NOSIG

Aviation forecast (TAF) for Maputo Airport

Retrieved 2020/08/10 12:09 UTC (3 hours ago):

TAF FQMA 101000Z 1012/1118 12012KT 9999 FEW025 TX24/1013Z TN16/1103Z BECMG 1018/1020 18008KT